createdAt,value
2024-02-08T00:00:06.373Z,-10.96
2024-02-08T00:02:34.514Z,-11.02
2024-02-08T00:05:04.223Z,-11.06
2024-02-08T00:07:32.457Z,-10.99
2024-02-08T00:10:00.855Z,-10.98
2024-02-08T00:12:32.003Z,-11.00
2024-02-08T00:15:00.322Z,-10.95
2024-02-08T00:17:29.138Z,-10.94
2024-02-08T00:19:57.394Z,-10.89
2024-02-08T00:22:27.105Z,-10.92
2024-02-08T00:24:56.667Z,-10.94
2024-02-08T00:27:25.032Z,-10.98
2024-02-08T00:29:53.244Z,-10.98
2024-02-08T00:48:05.812Z,-11.24
2024-02-08T00:50:35.983Z,-11.26
2024-02-08T00:53:07.209Z,-11.21
2024-02-08T00:55:36.084Z,-11.18
2024-02-08T00:58:04.748Z,-11.20
2024-02-08T01:00:39.306Z,-11.27
2024-02-08T01:03:09.516Z,-11.34
2024-02-08T01:05:37.730Z,-11.34
2024-02-08T01:08:06.669Z,-11.33
2024-02-08T01:10:34.946Z,-11.33
2024-02-08T01:13:03.169Z,-11.31
2024-02-08T01:15:31.378Z,-11.38
2024-02-08T01:18:02.803Z,-11.34
2024-02-08T01:20:33.500Z,-11.43
2024-02-08T01:23:05.834Z,-11.48
2024-02-08T01:25:34.458Z,-11.46
2024-02-08T01:28:02.773Z,-11.50
2024-02-08T01:30:30.924Z,-11.57
2024-02-08T01:33:00.739Z,-11.48
2024-02-08T01:35:29.082Z,-11.42
2024-02-08T01:38:00.400Z,-11.41
2024-02-08T01:40:28.731Z,-11.39
2024-02-08T01:42:59.395Z,-11.34
2024-02-08T01:45:39.758Z,-11.29
2024-02-08T01:48:11.746Z,-11.30
2024-02-08T01:50:43.871Z,-11.35
2024-02-08T01:53:19.884Z,-11.40
2024-02-08T01:55:51.959Z,-11.46
2024-02-08T01:58:22.097Z,-11.60
2024-02-08T02:00:54.649Z,-11.67
2024-02-08T02:03:24.899Z,-11.72
2024-02-08T02:05:53.294Z,-11.73
2024-02-08T02:08:27.964Z,-11.72
2024-02-08T02:11:09.479Z,-11.75
2024-02-08T02:13:39.917Z,-11.73
2024-02-08T02:16:08.664Z,-11.85
2024-02-08T02:18:37.917Z,-11.88
2024-02-08T02:21:06.025Z,-11.85
2024-02-08T02:23:35.355Z,-11.81
2024-02-08T02:26:03.780Z,-11.79
2024-02-08T02:28:32.441Z,-11.84
2024-02-08T02:31:03.375Z,-11.91
2024-02-08T02:33:31.613Z,-11.91
2024-02-08T02:35:59.817Z,-11.88
2024-02-08T02:38:28.295Z,-11.92
2024-02-08T02:41:06.002Z,-11.92
2024-02-08T02:43:34.340Z,-11.94
2024-02-08T02:46:02.629Z,-11.96
2024-02-08T02:48:32.806Z,-11.98
2024-02-08T02:51:02.561Z,-11.95
2024-02-08T02:53:31.999Z,-11.98
2024-02-08T02:56:01.687Z,-12.09
2024-02-08T02:58:29.902Z,-12.20
2024-02-08T03:01:06.304Z,-12.19
2024-02-08T03:03:39.348Z,-12.28
2024-02-08T03:06:15.774Z,-12.44
2024-02-08T03:08:45.379Z,-12.48
2024-02-08T03:11:16.054Z,-12.51
2024-02-08T03:13:47.265Z,-12.58
2024-02-08T03:16:16.400Z,-12.67
2024-02-08T03:18:47.842Z,-12.83
2024-02-08T03:21:19.666Z,-12.87
2024-02-08T03:23:49.394Z,-12.87
2024-02-08T03:26:18.752Z,-12.91
2024-02-08T03:28:50.099Z,-12.89
2024-02-08T03:31:19.022Z,-12.90
2024-02-08T03:33:47.223Z,-12.89
2024-02-08T03:36:15.572Z,-12.84
2024-02-08T03:38:45.555Z,-12.82
2024-02-08T03:41:13.975Z,-12.86
2024-02-08T03:43:43.664Z,-12.92
2024-02-08T03:46:11.914Z,-12.84
2024-02-08T03:48:41.522Z,-12.88
2024-02-08T03:51:12.201Z,-12.95
2024-02-08T03:53:40.425Z,-13.02
2024-02-08T03:56:09.056Z,-13.05
2024-02-08T03:58:38.151Z,-13.03
2024-02-08T04:01:10.166Z,-13.00
2024-02-08T04:03:55.223Z,-12.99
2024-02-08T04:06:37.576Z,-13.06
2024-02-08T04:09:10.781Z,-13.04
2024-02-08T04:11:56.806Z,-13.11
2024-02-08T04:14:42.657Z,-13.21
2024-02-08T04:17:29.858Z,-13.25
2024-02-08T04:20:15.494Z,-13.24
2024-02-08T04:23:01.136Z,-13.27
2024-02-08T04:25:55.323Z,-13.33
2024-02-08T04:28:41.005Z,-13.32
2024-02-08T04:31:28.762Z,-13.31
2024-02-08T04:34:16.012Z,-13.28
2024-02-08T04:37:01.637Z,-13.34
2024-02-08T04:39:47.327Z,-13.34
2024-02-08T04:42:32.925Z,-13.40
2024-02-08T04:45:30.344Z,-13.45
2024-02-08T04:48:16.649Z,-13.50
2024-02-08T04:51:03.946Z,-13.51
2024-02-08T04:53:44.966Z,-13.48
2024-02-08T04:56:16.892Z,-13.63
2024-02-08T04:59:08.195Z,-13.58
2024-02-08T05:01:39.840Z,-13.52
2024-02-08T05:04:08.326Z,-13.57
2024-02-08T05:06:38.670Z,-13.65
2024-02-08T05:09:06.942Z,-13.62
2024-02-08T05:11:38.492Z,-13.63
2024-02-08T05:14:07.024Z,-13.59
2024-02-08T05:16:38.821Z,-13.63
2024-02-08T05:19:07.276Z,-13.66
2024-02-08T05:21:42.605Z,-13.64
2024-02-08T05:24:15.118Z,-13.66
2024-02-08T05:26:44.738Z,-13.68
2024-02-08T05:29:14.474Z,-13.69
2024-02-08T05:31:43.153Z,-13.66
2024-02-08T05:34:17.181Z,-13.67
2024-02-08T05:36:47.933Z,-13.64
2024-02-08T05:39:26.282Z,-13.70
2024-02-08T05:41:57.374Z,-13.71
2024-02-08T05:44:31.824Z,-13.74
2024-02-08T05:47:08.385Z,-13.78
2024-02-08T05:49:37.811Z,-13.90
2024-02-08T05:52:08.865Z,-13.92
2024-02-08T05:54:42.079Z,-13.96
2024-02-08T05:57:12.946Z,-13.96
2024-02-08T05:59:42.032Z,-14.01
2024-02-08T06:02:25.041Z,-14.01
2024-02-08T06:05:02.805Z,-14.04
2024-02-08T06:07:32.914Z,-14.12
2024-02-08T06:10:15.460Z,-14.13
2024-02-08T06:12:53.608Z,-14.13
2024-02-08T06:15:27.759Z,-14.16
2024-02-08T06:18:00.765Z,-14.10
2024-02-08T06:20:35.523Z,-14.22
2024-02-08T06:23:18.678Z,-14.18
2024-02-08T06:26:12.514Z,-14.10
2024-02-08T06:28:48.124Z,-14.04
2024-02-08T06:31:20.073Z,-14.01
2024-02-08T06:34:03.294Z,-14.03
2024-02-08T06:36:31.840Z,-13.98
2024-02-08T06:39:19.694Z,-14.10
2024-02-08T06:41:53.995Z,-14.06
2024-02-08T06:44:48.454Z,-14.09
2024-02-08T06:47:52.197Z,-14.11
2024-02-08T06:50:38.152Z,-14.09
2024-02-08T06:53:23.927Z,-14.11
2024-02-08T06:56:09.628Z,-14.19
2024-02-08T06:58:56.620Z,-14.39
2024-02-08T07:01:42.299Z,-14.33
2024-02-08T07:04:27.882Z,-14.43
2024-02-08T07:07:13.528Z,-14.46
2024-02-08T07:09:56.037Z,-14.50
2024-02-08T07:12:41.517Z,-14.59
2024-02-08T07:15:28.648Z,-14.64
2024-02-08T07:18:14.570Z,-14.63
2024-02-08T07:21:00.625Z,-14.59
2024-02-08T07:23:46.270Z,-14.63
2024-02-08T07:26:34.880Z,-14.65
2024-02-08T07:29:21.119Z,-14.62
2024-02-08T07:32:08.449Z,-14.58
2024-02-08T07:34:54.835Z,-14.49
2024-02-08T07:37:27.432Z,-14.47
2024-02-08T07:40:03.592Z,-14.36
2024-02-08T07:42:34.203Z,-14.33
2024-02-08T07:45:06.295Z,-14.25
2024-02-08T07:47:36.411Z,-14.20
2024-02-08T07:50:06.893Z,-14.21
2024-02-08T07:52:39.793Z,-14.08
2024-02-08T07:55:21.942Z,-14.13
2024-02-08T07:57:59.312Z,-14.13
2024-02-08T08:00:43.718Z,-14.20
2024-02-08T08:03:18.308Z,-14.14
2024-02-08T08:05:52.478Z,-14.16
2024-02-08T08:08:27.780Z,-14.19
2024-02-08T08:10:58.338Z,-14.21
2024-02-08T08:13:48.695Z,-14.15
2024-02-08T08:16:34.572Z,-14.23
2024-02-08T08:19:10.848Z,-14.33
2024-02-08T08:21:54.663Z,-14.31
2024-02-08T08:24:26.965Z,-14.29
2024-02-08T08:27:07.864Z,-14.30
2024-02-08T08:29:45.018Z,-14.26
2024-02-08T08:32:36.465Z,-14.27
2024-02-08T08:35:25.333Z,-14.31
2024-02-08T08:38:15.232Z,-14.25
2024-02-08T08:40:43.762Z,-14.26
2024-02-08T08:43:22.109Z,-14.21
2024-02-08T08:45:52.099Z,-14.20
2024-02-08T08:48:20.937Z,-14.18
2024-02-08T08:50:56.458Z,-14.20
2024-02-08T08:53:28.888Z,-14.18
2024-02-08T08:55:57.816Z,-14.03
2024-02-08T08:58:29.429Z,-14.02
2024-02-08T09:01:13.295Z,-13.96
2024-02-08T09:03:42.261Z,-13.93
2024-02-08T09:06:13.531Z,-13.87
2024-02-08T09:08:47.346Z,-13.84
2024-02-08T09:11:16.076Z,-13.72
2024-02-08T09:13:46.031Z,-13.65
2024-02-08T09:16:38.555Z,-13.58
2024-02-08T09:19:06.737Z,-13.50
2024-02-08T09:21:37.736Z,-13.39
2024-02-08T09:24:07.638Z,-13.34
2024-02-08T09:26:49.911Z,-13.20
2024-02-08T09:29:28.713Z,-13.06
2024-02-08T09:32:00.339Z,-12.91
2024-02-08T09:34:41.205Z,-12.82
2024-02-08T09:37:12.654Z,-12.73
2024-02-08T09:40:00.552Z,-12.66
2024-02-08T09:42:30.845Z,-12.58
2024-02-08T09:45:15.704Z,-12.51
2024-02-08T09:47:53.534Z,-12.38
2024-02-08T09:50:32.675Z,-12.33
2024-02-08T09:53:08.710Z,-12.22
2024-02-08T09:55:39.383Z,-12.21
2024-02-08T09:58:11.864Z,-12.18
2024-02-08T10:00:56.372Z,-12.14
2024-02-08T10:03:34.087Z,-12.06
2024-02-08T10:06:14.007Z,-12.03
2024-02-08T10:08:52.458Z,-11.94
2024-02-08T10:11:37.412Z,-11.86
2024-02-08T10:14:25.213Z,-11.78
2024-02-08T10:16:54.902Z,-11.72
2024-02-08T10:19:49.310Z,-11.67
2024-02-08T10:22:19.992Z,-11.57
2024-02-08T10:25:07.673Z,-11.49
2024-02-08T10:27:37.444Z,-11.40
2024-02-08T10:30:07.626Z,-11.34
2024-02-08T10:32:37.462Z,-11.32
2024-02-08T10:35:15.426Z,-11.24
2024-02-08T10:37:49.133Z,-11.17
2024-02-08T10:40:31.889Z,-11.06
2024-02-08T10:43:01.381Z,-11.03
2024-02-08T10:45:33.898Z,-10.91
2024-02-08T10:48:04.945Z,-10.83
2024-02-08T10:50:36.307Z,-10.70
2024-02-08T10:53:17.752Z,-10.68
2024-02-08T10:55:53.971Z,-10.71
2024-02-08T10:58:22.828Z,-10.70
2024-02-08T11:01:08.747Z,-10.66
2024-02-08T11:03:43.894Z,-10.58
2024-02-08T11:06:29.897Z,-10.45
2024-02-08T11:09:13.396Z,-10.38
2024-02-08T11:11:47.261Z,-10.37
2024-02-08T11:14:20.600Z,-10.29
2024-02-08T11:16:53.097Z,-10.21
2024-02-08T11:19:23.917Z,-10.15
2024-02-08T11:21:53.246Z,-10.12
2024-02-08T11:24:29.950Z,-10.08
2024-02-08T11:27:04.004Z,-10.04
2024-02-08T11:29:47.129Z,-10.05
2024-02-08T11:32:18.672Z,-10.06
2024-02-08T11:34:48.776Z,-10.01
2024-02-08T11:37:21.092Z,-9.91
2024-02-08T11:40:01.939Z,-9.76
2024-02-08T11:42:38.466Z,-9.65
2024-02-08T11:45:11.398Z,-9.56
2024-02-08T11:47:43.510Z,-9.49
2024-02-08T11:50:22.923Z,-9.39
2024-02-08T11:52:59.470Z,-9.29
2024-02-08T11:55:30.159Z,-9.19
2024-02-08T11:58:00.822Z,-9.11
2024-02-08T12:00:32.113Z,-9.02
2024-02-08T12:03:02.833Z,-8.97
2024-02-08T12:05:34.724Z,-8.92
2024-02-08T12:08:11.616Z,-8.82
2024-02-08T12:10:43.639Z,-8.76
2024-02-08T12:13:15.841Z,-8.71
2024-02-08T12:15:57.618Z,-8.71
2024-02-08T12:18:28.975Z,-8.68
2024-02-08T12:20:58.756Z,-8.66
2024-02-08T12:23:32.494Z,-8.68
2024-02-08T12:26:04.804Z,-8.58
2024-02-08T12:28:39.316Z,-8.12
2024-02-08T12:31:18.367Z,-7.63
2024-02-08T12:33:53.404Z,-7.24
2024-02-08T12:36:25.481Z,-6.93
2024-02-08T12:38:55.490Z,-6.78
2024-02-08T12:41:24.835Z,-6.65
2024-02-08T12:43:55.741Z,-6.38
2024-02-08T12:46:24.880Z,-6.22
2024-02-08T12:48:53.219Z,-6.16
2024-02-08T12:51:24.509Z,-6.03
2024-02-08T12:53:58.636Z,-5.88
2024-02-08T12:56:27.325Z,-5.91
2024-02-08T12:59:03.315Z,-6.19
2024-02-08T13:01:40.486Z,-6.43
2024-02-08T13:04:09.347Z,-6.35
2024-02-08T13:06:37.849Z,-6.42
2024-02-08T13:09:27.771Z,-6.52
2024-02-08T13:12:16.470Z,-6.31
2024-02-08T13:15:04.096Z,-6.05
2024-02-08T13:17:35.423Z,-5.86
2024-02-08T13:20:13.827Z,-5.78
2024-02-08T13:22:46.834Z,-6.02
2024-02-08T13:25:19.736Z,-6.20
2024-02-08T13:27:51.389Z,-5.97
2024-02-08T13:30:22.795Z,-6.24
2024-02-08T13:32:53.844Z,-6.35
2024-02-08T13:35:24.528Z,-6.61
2024-02-08T13:37:54.866Z,-6.87
2024-02-08T13:40:24.899Z,-7.10
2024-02-08T13:42:57.350Z,-7.27
2024-02-08T13:45:31.243Z,-7.42
2024-02-08T13:48:04.821Z,-7.56
2024-02-08T13:50:34.735Z,-7.65
2024-02-08T13:53:05.075Z,-7.76
2024-02-08T13:58:08.957Z,-7.91
2024-02-08T14:00:43.028Z,-7.99
2024-02-08T14:03:11.471Z,-8.07
2024-02-08T14:05:41.954Z,-8.16
2024-02-08T14:08:18.729Z,-8.26
2024-02-08T14:10:49.083Z,-8.34
2024-02-08T14:13:30.434Z,-8.36
2024-02-08T14:16:08.270Z,-8.46
2024-02-08T14:18:39.976Z,-8.55
2024-02-08T14:21:11.708Z,-8.66
2024-02-08T14:23:42.650Z,-8.77
2024-02-08T14:26:33.915Z,-8.86
2024-02-08T14:29:04.168Z,-8.90
2024-02-08T14:31:38.846Z,-9.02
2024-02-08T14:34:12.849Z,-9.10
2024-02-08T14:36:49.764Z,-9.15
2024-02-08T14:39:34.237Z,-9.14
2024-02-08T14:42:03.195Z,-9.18
2024-02-08T14:44:42.415Z,-9.24
2024-02-08T14:47:22.811Z,-9.30
2024-02-08T14:50:01.099Z,-9.37
2024-02-08T14:52:37.446Z,-9.47
2024-02-08T14:55:22.432Z,-9.53
2024-02-08T14:57:54.302Z,-9.57
2024-02-08T15:00:40.552Z,-9.66
2024-02-08T15:03:11.182Z,-9.71
2024-02-08T15:05:49.461Z,-9.77
2024-02-08T15:08:47.484Z,-9.86
2024-02-08T15:11:33.196Z,-10.05
2024-02-08T15:14:03.451Z,-10.18
2024-02-08T15:16:33.014Z,-10.29
2024-02-08T15:19:03.512Z,-10.38
2024-02-08T15:21:37.483Z,-10.45
2024-02-08T15:24:23.535Z,-10.56
2024-02-08T15:27:06.844Z,-10.67
2024-02-08T15:29:46.208Z,-10.75
2024-02-08T15:32:19.896Z,-10.77
2024-02-08T15:35:07.822Z,-10.83
2024-02-08T15:37:43.849Z,-10.88
2024-02-08T15:40:14.119Z,-10.93
2024-02-08T15:42:43.658Z,-11.03
2024-02-08T15:45:12.631Z,-11.08
2024-02-08T15:47:56.558Z,-11.18
2024-02-08T15:50:37.593Z,-11.22
2024-02-08T15:53:10.975Z,-11.25
2024-02-08T15:55:44.248Z,-11.30
2024-02-08T15:58:27.679Z,-11.38
2024-02-08T16:01:21.925Z,-11.47
2024-02-08T16:03:59.328Z,-11.68
2024-02-08T16:06:45.938Z,-11.75
2024-02-08T16:09:27.433Z,-11.77
2024-02-08T16:12:01.393Z,-11.83
2024-02-08T16:14:32.089Z,-11.86
2024-02-08T16:17:30.991Z,-11.88
2024-02-08T16:20:07.260Z,-11.98
2024-02-08T16:22:49.206Z,-12.01
2024-02-08T16:25:42.211Z,-12.02
2024-02-08T16:28:18.103Z,-12.13
2024-02-08T16:31:10.062Z,-12.12
2024-02-08T16:33:49.534Z,-12.14
2024-02-08T16:36:33.120Z,-12.19
2024-02-08T16:39:10.100Z,-12.34
2024-02-08T16:41:49.889Z,-12.42
2024-02-08T16:44:23.833Z,-12.47
2024-02-08T16:46:55.228Z,-12.52
2024-02-08T16:49:29.254Z,-12.56
2024-02-08T16:51:58.109Z,-12.62
2024-02-08T16:54:35.004Z,-12.70
2024-02-08T16:57:05.426Z,-12.86
2024-02-08T16:59:46.490Z,-12.87
2024-02-08T17:02:21.010Z,-12.90
2024-02-08T17:04:51.235Z,-12.90
2024-02-08T17:07:26.356Z,-12.93
2024-02-08T17:09:59.721Z,-12.98
2024-02-08T17:12:46.419Z,-13.11
2024-02-08T17:15:28.577Z,-13.08
2024-02-08T17:18:07.653Z,-13.09
2024-02-08T17:20:44.408Z,-13.09
2024-02-08T17:23:29.528Z,-13.11
2024-02-08T17:26:07.931Z,-13.12
2024-02-08T17:28:51.345Z,-13.10
2024-02-08T17:31:30.002Z,-13.24
2024-02-08T17:33:59.353Z,-13.26
2024-02-08T17:36:32.321Z,-13.37
2024-02-08T17:39:00.682Z,-13.47
2024-02-08T17:41:30.346Z,-13.50
2024-02-08T17:44:05.189Z,-13.59
2024-02-08T17:46:39.735Z,-13.69
2024-02-08T17:49:17.287Z,-13.75
2024-02-08T17:51:51.196Z,-13.79
2024-02-08T17:54:26.464Z,-13.79
2024-02-08T17:57:03.706Z,-13.83
2024-02-08T17:59:32.643Z,-13.90
2024-02-08T18:02:05.866Z,-13.99
2024-02-08T18:04:38.505Z,-14.04
2024-02-08T18:07:12.946Z,-14.12
2024-02-08T18:09:43.854Z,-14.17
2024-02-08T18:12:23.885Z,-14.25
2024-02-08T18:14:57.352Z,-14.28
2024-02-08T18:17:26.512Z,-14.29
2024-02-08T18:19:55.849Z,-14.34
2024-02-08T18:22:31.692Z,-14.46
2024-02-08T18:25:01.382Z,-14.52
2024-02-08T18:27:34.269Z,-14.47
2024-02-08T18:30:10.803Z,-14.33
2024-02-08T18:32:40.420Z,-14.38
2024-02-08T18:35:09.776Z,-14.37
2024-02-08T18:37:38.324Z,-14.35
2024-02-08T18:40:09.695Z,-14.38
2024-02-08T18:42:40.393Z,-14.38
2024-02-08T18:45:17.790Z,-14.47
2024-02-08T18:47:51.377Z,-14.58
2024-02-08T18:50:19.965Z,-14.60
2024-02-08T18:52:51.537Z,-14.56
2024-02-08T18:55:35.031Z,-14.64
2024-02-08T18:58:04.898Z,-14.69
2024-02-08T19:00:35.036Z,-14.71
2024-02-08T19:03:09.060Z,-14.85
2024-02-08T19:05:41.999Z,-14.93
2024-02-08T19:08:15.406Z,-14.97
2024-02-08T19:10:49.496Z,-14.97
2024-02-08T19:13:27.162Z,-14.97
2024-02-08T19:15:58.244Z,-14.97
2024-02-08T19:18:34.028Z,-15.08
2024-02-08T19:21:02.401Z,-15.15
2024-02-08T19:23:32.790Z,-15.22
2024-02-08T19:26:08.757Z,-15.32
2024-02-08T19:28:38.199Z,-15.45
2024-02-08T19:31:10.994Z,-15.64
2024-02-08T19:33:43.108Z,-15.78
2024-02-08T19:36:11.908Z,-15.83
2024-02-08T19:38:40.184Z,-15.93
2024-02-08T19:41:08.688Z,-15.98
2024-02-08T19:43:43.035Z,-15.93
2024-02-08T19:46:12.996Z,-16.08
2024-02-08T19:48:42.717Z,-16.02
2024-02-08T19:51:11.311Z,-16.11
2024-02-08T19:53:40.396Z,-16.18
2024-02-08T19:56:12.540Z,-16.21
2024-02-08T19:58:44.449Z,-16.21
2024-02-08T20:01:17.860Z,-16.18
2024-02-08T20:03:48.704Z,-16.12
2024-02-08T20:06:22.503Z,-16.09
2024-02-08T20:08:55.825Z,-16.08
2024-02-08T20:11:25.733Z,-16.06
2024-02-08T20:14:00.411Z,-16.04
2024-02-08T20:16:31.767Z,-16.06
2024-02-08T20:19:02.577Z,-16.09
2024-02-08T20:21:32.950Z,-16.17
2024-02-08T20:24:01.889Z,-16.17
2024-02-08T20:26:30.242Z,-16.21
2024-02-08T20:29:05.922Z,-16.23
2024-02-08T20:31:36.726Z,-16.26
2024-02-08T20:34:06.811Z,-16.32
2024-02-08T20:36:35.140Z,-16.43
2024-02-08T20:39:03.642Z,-16.52
2024-02-08T20:41:32.101Z,-16.63
2024-02-08T20:44:12.046Z,-16.67
2024-02-08T20:46:41.562Z,-16.64
2024-02-08T20:49:13.495Z,-16.57
2024-02-08T20:51:42.393Z,-16.66
2024-02-08T20:54:12.508Z,-16.56
2024-02-08T20:56:41.656Z,-16.56
2024-02-08T20:59:12.064Z,-16.59
2024-02-08T21:01:40.599Z,-16.66
2024-02-08T21:04:09.700Z,-16.64
2024-02-08T21:06:38.993Z,-16.64
2024-02-08T21:09:08.616Z,-16.77
2024-02-08T21:11:36.932Z,-16.85
2024-02-08T21:14:05.332Z,-16.82
2024-02-08T21:16:35.361Z,-16.95
2024-02-08T21:19:10.298Z,-16.89
2024-02-08T21:21:38.732Z,-16.88
2024-02-08T21:24:12.066Z,-16.82
2024-02-08T21:26:40.931Z,-16.92
2024-02-08T21:29:11.466Z,-16.94
2024-02-08T21:31:46.606Z,-17.05
2024-02-08T21:34:16.100Z,-17.11
2024-02-08T21:36:44.605Z,-17.12
2024-02-08T21:39:20.065Z,-17.20
2024-02-08T21:41:48.966Z,-17.23
2024-02-08T21:44:17.245Z,-17.28
2024-02-08T21:46:51.143Z,-17.36
2024-02-08T21:49:26.938Z,-17.38
2024-02-08T21:51:56.216Z,-17.37
2024-02-08T21:54:27.371Z,-17.35
2024-02-08T21:56:56.118Z,-17.39
2024-02-08T21:59:24.316Z,-17.46
2024-02-08T22:01:53.864Z,-17.50
2024-02-08T22:04:22.108Z,-17.62
2024-02-08T22:06:50.415Z,-17.69
2024-02-08T22:09:19.345Z,-17.69
2024-02-08T22:11:48.317Z,-17.74
2024-02-08T22:14:17.165Z,-17.65
2024-02-08T22:16:46.308Z,-17.57
2024-02-08T22:19:16.012Z,-17.63
2024-02-08T22:21:46.398Z,-17.74
2024-02-08T22:24:14.895Z,-17.70
2024-02-08T22:26:49.011Z,-17.69
2024-02-08T22:29:17.755Z,-17.76
2024-02-08T22:31:47.776Z,-17.80
2024-02-08T22:34:17.567Z,-17.87
2024-02-08T22:36:48.383Z,-17.92
2024-02-08T22:39:16.718Z,-17.99
2024-02-08T22:41:48.891Z,-17.91
2024-02-08T22:44:17.355Z,-17.83
2024-02-08T22:46:45.815Z,-17.80
2024-02-08T22:49:14.827Z,-17.91
2024-02-08T22:51:47.378Z,-17.98
2024-02-08T22:54:18.393Z,-18.03
2024-02-08T22:56:46.661Z,-18.03
2024-02-08T22:59:17.631Z,-18.04
2024-02-08T23:01:53.872Z,-18.02
2024-02-08T23:04:22.880Z,-18.03
2024-02-08T23:06:52.978Z,-18.12
2024-02-08T23:09:21.390Z,-18.19
2024-02-08T23:11:51.526Z,-18.32
2024-02-08T23:14:22.732Z,-18.28
2024-02-08T23:16:53.011Z,-18.27
2024-02-08T23:19:21.848Z,-18.25
2024-02-08T23:21:59.445Z,-18.24
2024-02-08T23:24:28.759Z,-18.26
2024-02-08T23:26:57.067Z,-18.31
2024-02-08T23:29:26.170Z,-18.28
2024-02-08T23:31:54.475Z,-18.29
2024-02-08T23:34:25.309Z,-18.29
2024-02-08T23:36:55.463Z,-18.39
2024-02-08T23:39:29.160Z,-18.36
2024-02-08T23:41:58.743Z,-18.38
2024-02-08T23:44:29.825Z,-18.38
2024-02-08T23:46:58.348Z,-18.40
2024-02-08T23:49:29.304Z,-18.40
2024-02-08T23:52:00.110Z,-18.44
2024-02-08T23:54:29.850Z,-18.50
2024-02-08T23:56:58.550Z,-18.46
2024-02-08T23:59:29.788Z,-18.51
